Time;durP1;ratioP1;P1;durP2;ratioP2;P2;SDS_P1;SDS_P2;PMS_P1;PMS_P2;Temp;Humidity;BMP_temperature;BMP_pressure;BME280_temperature;BME280_humidity;BME280_pressure;Samples;Min_cycle;Max_cycle;Signal;HPM_P1;HPM_P2
2024/03/15 00:02:13;;;;;;;6.03;4.90;;;;;;;11.86;87.42;100100.00;5067082;28;20200;-69
2024/03/15 00:04:41;;;;;;;5.40;4.43;;;;;;;11.83;87.85;100109.09;5076508;28;20203;-69
2024/03/15 00:07:07;;;;;;;5.27;4.20;;;;;;;11.82;87.74;100106.56;5084422;28;20279;-70
2024/03/15 00:09:34;;;;;;;5.33;4.60;;;;;;;11.80;87.95;100098.69;5060265;28;20315;-70
2024/03/15 00:12:01;;;;;;;5.53;4.90;;;;;;;11.82;87.66;100101.25;5065341;28;20322;-69
2024/03/15 00:14:28;;;;;;;6.83;4.70;;;;;;;11.87;87.89;100099.03;5065277;28;20211;-71
2024/03/15 00:16:54;;;;;;;6.30;4.93;;;;;;;11.86;87.86;100101.81;5065974;28;20222;-69
2024/03/15 00:19:21;;;;;;;7.07;5.40;;;;;;;11.91;87.83;100092.50;5061416;28;20290;-69
2024/03/15 00:21:48;;;;;;;6.50;4.90;;;;;;;11.91;87.81;100108.50;5063713;28;20221;-69
2024/03/15 00:24:14;;;;;;;6.13;5.00;;;;;;;11.92;87.88;100099.53;5067608;28;20221;-70
2024/03/15 00:26:41;;;;;;;5.20;4.47;;;;;;;11.92;87.75;100101.34;5062781;28;20211;-69
2024/03/15 00:29:09;;;;;;;6.00;5.10;;;;;;;11.96;87.83;100105.50;5067403;28;20290;-69
2024/03/15 00:31:39;;;;;;;5.30;4.80;;;;;;;11.91;87.85;100103.19;5055961;22;20752;-66
2024/03/15 00:34:05;;;;;;;6.43;5.03;;;;;;;11.92;87.91;100101.34;5019149;28;20261;-69
2024/03/15 00:36:32;;;;;;;5.93;5.00;;;;;;;11.96;88.00;100105.50;5038874;28;20224;-67
2024/03/15 00:38:59;;;;;;;6.77;4.67;;;;;;;11.94;88.14;100099.44;5025402;28;20219;-67
2024/03/15 00:41:26;;;;;;;5.50;4.73;;;;;;;11.94;87.72;100097.59;5025703;28;20222;-68
2024/03/15 00:43:53;;;;;;;5.03;4.27;;;;;;;11.97;88.16;100097.38;5010056;28;20300;-66
2024/03/15 00:46:19;;;;;;;6.30;4.57;;;;;;;11.99;88.00;100086.59;5005613;28;20210;-68
2024/03/15 00:48:46;;;;;;;6.10;4.40;;;;;;;11.98;87.99;100093.75;5021489;28;20203;-68
2024/03/15 00:51:14;;;;;;;5.80;4.50;;;;;;;11.98;88.15;100080.41;5006458;28;20674;-68
2024/03/15 00:53:41;;;;;;;5.97;4.63;;;;;;;11.99;87.94;100081.25;5006740;28;20834;-67
2024/03/15 00:56:07;;;;;;;6.40;5.23;;;;;;;11.99;87.82;100082.09;5001766;28;20697;-68
2024/03/15 00:58:34;;;;;;;9.60;5.23;;;;;;;12.02;87.77;100075.66;5008162;28;20233;-68
2024/03/15 01:01:01;;;;;;;5.70;4.77;;;;;;;12.03;88.05;100072.00;5005431;28;20757;-68
2024/03/15 01:03:28;;;;;;;4.63;4.17;;;;;;;12.03;87.89;100067.53;5020139;28;20380;-68
2024/03/15 01:05:55;;;;;;;5.03;4.33;;;;;;;12.08;87.59;100072.50;5003720;28;20285;-67
2024/03/15 01:08:22;;;;;;;5.50;4.43;;;;;;;12.10;87.36;100067.91;5037553;28;20522;-68
2024/03/15 01:10:48;;;;;;;7.03;5.10;;;;;;;12.09;87.53;100071.53;5017086;28;20245;-68
2024/03/15 01:13:15;;;;;;;5.07;4.30;;;;;;;12.09;87.75;100069.72;5003939;28;20253;-68
2024/03/15 01:15:42;;;;;;;5.10;4.10;;;;;;;12.09;87.77;100068.88;5005480;28;20286;-68
2024/03/15 01:18:09;;;;;;;5.67;4.50;;;;;;;12.10;87.45;100060.75;5007022;28;20208;-68
2024/03/15 01:20:36;;;;;;;5.83;4.33;;;;;;;12.08;87.34;100060.00;5019486;28;20225;-68
2024/03/15 01:23:03;;;;;;;7.33;4.43;;;;;;;12.06;87.60;100059.28;5006773;28;20219;-68
2024/03/15 01:25:30;;;;;;;7.70;4.30;;;;;;;12.04;87.86;100060.38;5005059;28;20685;-68
2024/03/15 01:27:57;;;;;;;5.43;4.60;;;;;;;12.02;87.94;100049.81;5006171;28;20209;-68
2024/03/15 01:30:24;;;;;;;6.37;4.67;;;;;;;12.02;88.04;100054.28;5006381;28;20242;-68
2024/03/15 01:32:51;;;;;;;5.83;4.37;;;;;;;12.02;88.41;100051.63;5005679;28;20230;-68
2024/03/15 01:35:17;;;;;;;5.00;4.50;;;;;;;11.99;88.15;100050.06;5004814;28;20206;-68
2024/03/15 01:37:44;;;;;;;6.97;4.40;;;;;;;12.00;88.50;100053.59;5004259;28;20198;-68
2024/03/15 01:40:11;;;;;;;6.43;4.23;;;;;;;12.01;88.58;100055.25;5011514;28;20253;-68
2024/03/15 01:42:38;;;;;;;7.23;4.63;;;;;;;12.00;88.25;100050.91;5008841;28;20199;-67
2024/03/15 01:45:07;;;;;;;5.83;4.67;;;;;;;12.00;88.29;100049.06;5009060;28;20243;-67
2024/03/15 01:47:33;;;;;;;7.17;4.63;;;;;;;11.99;88.33;100049.22;5010468;28;20213;-68
2024/03/15 01:50:00;;;;;;;6.47;4.53;;;;;;;12.00;88.68;100051.75;5010156;28;20321;-68
2024/03/15 01:52:28;;;;;;;8.17;5.20;;;;;;;12.00;88.62;100056.25;5008817;28;20210;-68
2024/03/15 01:54:55;;;;;;;6.30;5.03;;;;;;;11.99;88.95;100059.91;5008900;28;20212;-68
2024/03/15 01:57:23;;;;;;;6.97;4.83;;;;;;;11.95;88.77;100055.75;5010791;28;20202;-68
2024/03/15 01:59:49;;;;;;;5.77;4.13;;;;;;;11.94;88.64;100057.59;5006598;28;20699;-68
2024/03/15 02:02:16;;;;;;;6.83;4.60;;;;;;;11.96;88.77;100060.97;5024170;28;20592;-69
2024/03/15 02:04:53;;;;;;;6.40;4.80;;;;;;;11.98;88.56;100055.53;5007501;28;20689;-68
2024/03/15 02:07:20;;;;;;;6.60;4.57;;;;;;;11.97;88.97;100045.81;5025393;28;20689;-68
2024/03/15 02:09:46;;;;;;;7.63;5.00;;;;;;;11.98;88.85;100050.19;5025053;28;20293;-68
2024/03/15 02:12:13;;;;;;;5.10;4.60;;;;;;;11.97;88.71;100051.16;5027612;28;20298;-68
2024/03/15 02:14:40;;;;;;;4.50;4.10;;;;;;;11.95;89.07;100048.59;5025945;28;20234;-68
2024/03/15 02:17:06;;;;;;;5.67;4.70;;;;;;;11.95;89.19;100047.75;5007613;28;20291;-68
2024/03/15 02:19:33;;;;;;;5.23;4.73;;;;;;;11.95;89.22;100059.28;5024375;28;20321;-68
2024/03/15 02:22:00;;;;;;;6.60;4.77;;;;;;;11.97;89.22;100046.66;5008428;28;20564;-68
2024/03/15 02:24:27;;;;;;;5.33;4.77;;;;;;;11.98;89.14;100058.19;5010484;28;20293;-68
2024/03/15 02:26:53;;;;;;;6.43;5.50;;;;;;;11.97;89.62;100057.34;5012131;28;20270;-68
2024/03/15 02:29:20;;;;;;;5.70;5.10;;;;;;;11.98;89.36;100050.19;5010099;28;20206;-69
2024/03/15 02:31:47;;;;;;;6.07;5.23;;;;;;;11.99;89.48;100051.88;5004619;28;20316;-68
2024/03/15 02:34:13;;;;;;;5.90;5.27;;;;;;;11.99;89.74;100042.06;5028290;28;20309;-68
2024/03/15 02:36:41;;;;;;;5.83;4.63;;;;;;;12.00;89.56;100040.25;5009252;28;20294;-69
2024/03/15 02:39:07;;;;;;;5.60;4.47;;;;;;;11.99;89.78;100046.56;5012060;28;20573;-68
2024/03/15 02:41:34;;;;;;;6.83;5.00;;;;;;;11.96;89.99;100041.44;5006777;28;20244;-68
2024/03/15 02:44:01;;;;;;;5.93;4.87;;;;;;;11.94;89.87;100038.91;5010678;28;20256;-68
2024/03/15 02:46:28;;;;;;;5.97;4.70;;;;;;;11.93;90.09;100036.34;5008294;28;20202;-68
2024/03/15 02:48:54;;;;;;;5.43;4.50;;;;;;;11.90;90.17;100032.09;5025255;28;20296;-68
2024/03/15 02:51:24;;;;;;;6.17;5.50;;;;;;;11.88;90.62;100031.38;5010269;28;20235;-68
2024/03/15 02:53:51;;;;;;;6.80;5.10;;;;;;;11.88;90.52;100030.53;5009012;28;20223;-69
2024/03/15 02:56:17;;;;;;;8.60;4.97;;;;;;;11.88;90.86;100025.19;5025565;28;20827;-68
2024/03/15 02:58:46;;;;;;;7.53;4.90;;;;;;;11.87;90.72;100026.16;5001671;28;20209;-66
2024/03/15 03:01:13;;;;;;;5.50;4.80;;;;;;;11.88;90.90;100019.84;5016604;28;20236;-68
2024/03/15 03:03:40;;;;;;;6.27;5.10;;;;;;;11.88;90.89;100025.19;5004817;28;20721;-68
2024/03/15 03:06:07;;;;;;;6.17;4.80;;;;;;;11.86;90.85;100022.63;5004311;28;20206;-69
2024/03/15 03:08:35;;;;;;;8.63;4.97;;;;;;;11.85;91.11;100015.59;5004374;28;20201;-69
2024/03/15 03:11:06;;;;;;;6.20;5.17;;;;;;;11.86;90.84;100017.28;5005780;28;20321;-68
2024/03/15 03:13:33;;;;;;;6.10;5.13;;;;;;;11.86;91.07;100014.63;5001758;28;20353;-68
2024/03/15 03:16:00;;;;;;;5.80;5.20;;;;;;;11.86;91.03;100013.78;5005944;28;20661;-68
2024/03/15 03:18:26;;;;;;;7.47;5.47;;;;;;;11.86;91.36;100011.09;5014758;28;20503;-68
2024/03/15 03:20:53;;;;;;;5.90;5.30;;;;;;;11.83;90.87;100012.19;5024887;28;20323;-68
2024/03/15 03:23:20;;;;;;;5.57;4.80;;;;;;;11.84;91.10;100003.22;5010459;28;20648;-68
2024/03/15 03:25:47;;;;;;;5.57;4.87;;;;;;;11.82;90.71;100011.34;5025001;28;20262;-68
2024/03/15 03:28:14;;;;;;;5.67;5.07;;;;;;;11.79;90.65;100003.59;5021154;28;20727;-67
2024/03/15 03:30:41;;;;;;;6.00;5.30;;;;;;;11.76;91.01;100001.16;5014304;28;20752;-68
2024/03/15 03:33:08;;;;;;;5.40;4.90;;;;;;;11.73;90.91;100001.38;5009413;28;20702;-67
2024/03/15 03:35:34;;;;;;;6.23;4.77;;;;;;;11.68;90.68;100000.88;4996420;28;20230;-66
2024/03/15 03:38:02;;;;;;;7.43;5.03;;;;;;;11.65;90.80;100001.13;5007397;28;20689;-66
2024/03/15 03:40:29;;;;;;;7.10;5.37;;;;;;;11.62;90.83;99998.72;5004459;28;20774;-67
2024/03/15 03:42:56;;;;;;;8.20;5.53;;;;;;;11.58;90.86;100002.56;5009695;28;20307;-67
2024/03/15 03:45:22;;;;;;;7.03;5.30;;;;;;;11.56;91.26;99999.19;5006791;28;20301;-68
2024/03/15 03:47:49;;;;;;;7.47;5.20;;;;;;;11.51;91.40;99998.69;5007139;28;20295;-67
2024/03/15 03:50:17;;;;;;;5.50;5.00;;;;;;;11.47;91.49;99999.88;5021669;28;20242;-67
2024/03/15 03:52:44;;;;;;;6.67;5.33;;;;;;;11.42;91.86;100000.25;5002191;28;20253;-67
2024/03/15 03:55:10;;;;;;;5.67;5.03;;;;;;;11.38;92.03;100003.25;5006813;28;20228;-67
2024/03/15 03:57:37;;;;;;;6.83;5.07;;;;;;;11.34;92.20;100004.47;5005624;28;20342;-66
2024/03/15 04:00:14;;;;;;;6.30;5.23;;;;;;;11.32;92.15;99995.72;5007928;28;20592;-67
2024/03/15 04:02:44;;;;;;;6.80;5.97;;;;;;;11.31;92.45;99994.88;5007177;28;20208;-67
2024/03/15 04:05:12;;;;;;;5.60;4.90;;;;;;;11.29;92.78;99993.28;5010456;28;20266;-67
2024/03/15 04:07:39;;;;;;;7.10;5.40;;;;;;;11.25;92.91;100003.38;5002405;28;20210;-67
2024/03/15 04:10:06;;;;;;;7.80;6.13;;;;;;;11.19;92.55;100016.28;5017916;28;20245;-67
2024/03/15 04:12:33;;;;;;;7.27;6.33;;;;;;;11.11;92.72;100006.19;5004311;28;20652;-67
2024/03/15 04:15:00;;;;;;;6.80;5.10;;;;;;;11.02;92.56;100009.56;5003921;28;20592;-67
2024/03/15 04:17:26;;;;;;;6.30;5.10;;;;;;;10.94;92.65;100007.47;5003386;28;20210;-67
2024/03/15 04:19:54;;;;;;;8.90;6.53;;;;;;;10.85;92.76;100010.84;5019488;28;20318;-67
2024/03/15 04:22:21;;;;;;;7.83;5.77;;;;;;;10.81;93.54;100016.50;5004430;28;20229;-67
2024/03/15 04:24:49;;;;;;;6.97;5.70;;;;;;;10.76;93.55;100011.50;5005528;28;20230;-67
2024/03/15 04:27:16;;;;;;;7.93;5.97;;;;;;;10.72;93.72;100016.25;5006013;28;20689;-68
2024/03/15 04:29:43;;;;;;;8.13;6.40;;;;;;;10.67;94.26;100009.53;5008039;28;20291;-67
2024/03/15 04:32:10;;;;;;;7.37;6.67;;;;;;;10.64;94.66;100020.41;5002518;28;20199;-68
2024/03/15 04:34:38;;;;;;;8.53;7.07;;;;;;;10.62;94.62;100011.69;5021917;28;20738;-67
2024/03/15 04:37:05;;;;;;;7.23;6.33;;;;;;;10.59;94.76;100019.91;5006789;28;20210;-67
2024/03/15 04:39:32;;;;;;;7.53;6.03;;;;;;;10.55;94.55;100018.44;5036622;28;20201;-67
2024/03/15 04:41:58;;;;;;;6.47;5.87;;;;;;;10.51;94.71;100014.31;5012227;28;20391;-67
2024/03/15 04:44:25;;;;;;;7.43;6.60;;;;;;;10.49;94.92;100014.41;5029033;28;20200;-67
2024/03/15 04:46:52;;;;;;;7.23;6.10;;;;;;;10.44;95.10;100017.41;5028771;28;20298;-65
2024/03/15 04:49:18;;;;;;;7.10;6.33;;;;;;;10.39;95.32;100011.56;5021917;28;20296;-67
2024/03/15 04:51:45;;;;;;;6.80;6.10;;;;;;;10.35;95.49;100004.78;5029014;28;20223;-67
2024/03/15 04:54:12;;;;;;;7.53;6.80;;;;;;;10.33;95.70;100006.69;5007437;28;20269;-68
2024/03/15 04:56:38;;;;;;;7.87;6.47;;;;;;;10.28;95.55;100008.81;5010783;28;20282;-67
2024/03/15 04:59:06;;;;;;;7.00;6.30;;;;;;;10.22;95.51;100003.94;5009652;28;20290;-67
2024/03/15 05:01:33;;;;;;;8.10;7.27;;;;;;;10.18;95.67;99998.94;5010707;28;20226;-67
2024/03/15 05:03:59;;;;;;;8.07;7.00;;;;;;;10.14;95.90;100000.09;5011800;28;20298;-68
2024/03/15 05:06:26;;;;;;;8.27;6.73;;;;;;;10.08;95.91;99996.06;5030961;28;20208;-67
2024/03/15 05:08:53;;;;;;;8.20;6.43;;;;;;;10.04;96.15;99995.44;5022039;28;20217;-66
2024/03/15 05:11:19;;;;;;;6.87;6.17;;;;;;;10.02;96.10;99996.53;5002700;28;20234;-67
2024/03/15 05:13:46;;;;;;;7.53;6.83;;;;;;;9.97;96.62;99996.00;5022440;28;20229;-67
2024/03/15 05:16:14;;;;;;;9.17;6.50;;;;;;;9.93;97.00;100000.69;5013969;28;20208;-66
2024/03/15 05:18:41;;;;;;;8.57;6.43;;;;;;;9.89;97.11;99999.19;5003046;28;20204;-66
2024/03/15 05:21:09;;;;;;;8.07;7.27;;;;;;;9.87;97.13;99994.94;5012888;28;20227;-67
2024/03/15 05:23:36;;;;;;;9.80;8.43;;;;;;;9.82;97.30;99989.09;5026973;28;20232;-67
2024/03/15 05:26:05;;;;;;;9.37;7.27;;;;;;;9.80;97.93;99999.00;5012485;28;20688;-68
2024/03/15 05:28:32;;;;;;;8.17;7.10;;;;;;;9.76;98.00;100001.03;5023288;28;20206;-66
2024/03/15 05:30:59;;;;;;;7.07;6.37;;;;;;;9.73;98.37;99987.94;5021474;28;20241;-67
2024/03/15 05:33:25;;;;;;;7.93;5.80;;;;;;;9.67;97.96;99996.38;5024006;28;20280;-66
2024/03/15 05:35:52;;;;;;;7.07;5.63;;;;;;;9.63;97.63;99985.09;5001160;28;20217;-67
2024/03/15 05:38:19;;;;;;;8.80;5.60;;;;;;;9.56;97.34;99999.75;5005226;28;20668;-67
2024/03/15 05:40:46;;;;;;;6.67;5.27;;;;;;;9.49;96.75;99992.31;5007858;28;20246;-67
2024/03/15 05:43:14;;;;;;;6.67;5.77;;;;;;;9.41;96.74;100000.81;5020155;28;20222;-67
2024/03/15 05:45:41;;;;;;;7.20;5.87;;;;;;;9.36;96.94;100005.59;5010097;28;20201;-65
2024/03/15 05:48:08;;;;;;;6.27;5.63;;;;;;;9.33;97.17;100006.63;5023492;28;20301;-67
2024/03/15 05:50:35;;;;;;;9.33;6.60;;;;;;;9.31;97.98;100003.25;5003551;28;20223;-67
2024/03/15 05:53:01;;;;;;;8.77;6.67;;;;;;;9.30;98.48;99998.91;5012726;28;20210;-67
2024/03/15 05:55:28;;;;;;;8.87;6.93;;;;;;;9.29;99.09;99999.00;5006005;28;20312;-67
2024/03/15 05:57:55;;;;;;;7.90;6.90;;;;;;;9.29;99.98;100001.66;5001468;28;20298;-67
2024/03/15 06:00:23;;;;;;;10.47;7.97;;;;;;;9.35;100.00;100006.53;5003957;28;20229;-67
2024/03/15 06:02:50;;;;;;;9.53;7.30;;;;;;;9.44;100.00;100005.06;4998165;28;20211;-66
2024/03/15 06:05:18;;;;;;;9.57;7.13;;;;;;;9.49;100.00;100006.47;5023396;28;20244;-67
2024/03/15 06:07:45;;;;;;;12.67;7.37;;;;;;;9.54;100.00;100003.47;5020022;28;20203;-66
2024/03/15 06:10:13;;;;;;;8.00;7.07;;;;;;;9.57;100.00;99998.78;5009586;28;20321;-67
2024/03/15 06:12:40;;;;;;;9.17;7.40;;;;;;;9.59;100.00;100004.00;5018432;28;20210;-67
2024/03/15 06:15:08;;;;;;;9.63;7.50;;;;;;;9.63;100.00;100009.00;5009620;28;20309;-67
2024/03/15 06:17:34;;;;;;;9.17;7.77;;;;;;;9.68;100.00;100003.34;5020588;28;20207;-66
2024/03/15 06:20:02;;;;;;;9.77;7.07;;;;;;;9.73;100.00;100010.06;5023169;28;20732;-68
2024/03/15 06:22:30;;;;;;;10.33;7.77;;;;;;;9.75;100.00;100005.50;5027081;28;20274;-67
2024/03/15 06:24:59;;;;;;;10.20;8.07;;;;;;;9.85;100.00;100000.38;5009510;28;20209;-66
2024/03/15 06:27:26;;;;;;;8.27;6.97;;;;;;;9.94;100.00;100005.03;5006033;28;20629;-66
2024/03/15 06:29:55;;;;;;;8.80;7.07;;;;;;;10.11;100.00;100011.81;5021522;28;20317;-67
2024/03/15 06:32:26;;;;;;;8.83;6.43;;;;;;;10.28;100.00;100007.97;5004841;28;20211;-66
2024/03/15 06:34:53;;;;;;;7.57;6.40;;;;;;;10.41;100.00;100000.78;5004994;28;20587;-67
2024/03/15 06:37:22;;;;;;;10.17;6.73;;;;;;;10.55;100.00;99994.47;5030317;28;20532;-67
2024/03/15 06:40:03;;;;;;;10.33;5.80;;;;;;;10.67;100.00;99998.91;5026635;28;21120;-67
2024/03/15 06:45:23;;;;;;;7.60;5.83;;;;;;;10.89;100.00;100000.81;4997403;28;20205;-67
2024/03/15 06:47:52;;;;;;;6.90;5.47;;;;;;;10.97;100.00;99995.75;5023195;28;20222;-67
2024/03/15 06:50:30;;;;;;;6.77;6.07;;;;;;;11.02;100.00;99998.91;5025310;28;20592;-67
2024/03/15 06:52:56;;;;;;;7.07;5.60;;;;;;;11.10;100.00;99997.38;5022741;28;20307;-67
2024/03/15 06:55:23;;;;;;;6.83;6.10;;;;;;;11.19;100.00;99992.31;5007602;28;20233;-67
2024/03/15 06:57:50;;;;;;;7.77;5.70;;;;;;;11.28;100.00;99999.63;5009138;28;20227;-67
2024/03/15 07:00:17;;;;;;;6.53;5.80;;;;;;;11.35;99.85;99998.16;5003674;28;20228;-66
2024/03/15 07:02:44;;;;;;;8.17;5.53;;;;;;;11.41;99.36;99997.69;5005560;28;20232;-67
2024/03/15 07:05:12;;;;;;;7.50;5.93;;;;;;;11.46;98.84;99998.22;5004168;28;20194;-67
2024/03/15 07:07:38;;;;;;;6.03;5.07;;;;;;;11.52;98.63;100000.38;5026701;28;20206;-67
2024/03/15 07:10:05;;;;;;;7.93;6.03;;;;;;;11.58;97.94;100007.06;5015769;28;20320;-66
2024/03/15 07:12:31;;;;;;;7.50;5.43;;;;;;;11.64;97.44;100004.78;5008123;28;20289;-67
2024/03/15 07:14:58;;;;;;;5.93;4.97;;;;;;;11.70;97.62;100006.09;5006559;28;20267;-67
2024/03/15 07:17:24;;;;;;;7.67;5.37;;;;;;;11.75;96.77;100002.09;5012371;28;20570;-68
2024/03/15 07:19:51;;;;;;;7.23;5.20;;;;;;;11.81;96.58;100006.16;5013983;28;20228;-68
2024/03/15 07:22:18;;;;;;;6.70;6.00;;;;;;;11.89;95.35;100003.72;5007097;28;20844;-67
2024/03/15 07:24:45;;;;;;;7.20;4.80;;;;;;;11.94;95.48;100012.22;5030477;28;20254;-67
2024/03/15 07:27:11;;;;;;;6.23;4.50;;;;;;;11.98;94.61;100008.34;5007248;28;20664;-66
2024/03/15 07:29:38;;;;;;;6.93;5.03;;;;;;;12.05;93.60;100009.53;5022960;28;20229;-68
2024/03/15 07:32:06;;;;;;;7.23;4.87;;;;;;;12.11;93.42;100008.19;5009406;28;20309;-66
2024/03/15 07:34:33;;;;;;;5.80;4.77;;;;;;;12.15;92.63;100010.50;5020542;28;20230;-67
2024/03/15 07:37:01;;;;;;;7.13;4.90;;;;;;;12.19;93.13;100016.44;5015737;28;20570;-68
2024/03/15 07:39:30;;;;;;;5.50;4.60;;;;;;;12.25;92.31;100023.97;5008520;28;20206;-67
2024/03/15 07:41:59;;;;;;;6.17;4.40;;;;;;;12.31;91.65;100011.94;5000298;28;20222;-67
2024/03/15 07:44:26;;;;;;;7.20;4.70;;;;;;;12.38;91.22;100022.00;4999632;28;20204;-68
2024/03/15 07:46:52;;;;;;;6.40;4.77;;;;;;;12.44;90.70;100023.31;5004675;28;20301;-67
2024/03/15 07:49:19;;;;;;;6.40;5.07;;;;;;;12.52;90.00;100032.44;5026000;28;20296;-68
2024/03/15 07:51:46;;;;;;;7.00;4.60;;;;;;;12.55;89.82;100031.31;5022855;28;20321;-66
2024/03/15 07:54:13;;;;;;;4.97;4.30;;;;;;;12.65;89.71;100031.44;5001929;28;20210;-67
2024/03/15 07:56:39;;;;;;;4.67;4.27;;;;;;;12.73;88.83;100045.00;5018118;28;20217;-67
2024/03/15 07:59:06;;;;;;;11.33;5.27;;;;;;;12.75;87.82;100045.72;5011980;28;20207;-66
2024/03/15 08:01:33;;;;;;;6.77;4.50;;;;;;;12.77;88.59;100044.63;5008181;28;20718;-67
2024/03/15 08:03:59;;;;;;;6.53;4.87;;;;;;;12.83;87.96;100045.94;5011671;28;20206;-68
2024/03/15 08:06:27;;;;;;;5.47;4.47;;;;;;;12.84;87.58;100036.97;5016761;28;20304;-67
2024/03/15 08:08:54;;;;;;;6.67;4.50;;;;;;;12.89;88.25;100045.47;5022383;28;20668;-67
2024/03/15 08:11:21;;;;;;;6.30;4.43;;;;;;;13.01;87.14;100054.28;5001454;28;20222;-66
2024/03/15 08:13:47;;;;;;;6.67;4.57;;;;;;;13.08;88.13;100045.59;5018947;28;20297;-67
2024/03/15 08:16:23;;;;;;;6.47;4.33;;;;;;;13.25;87.64;100035.38;5002928;28;20643;-67
2024/03/15 08:18:49;;;;;;;6.53;4.70;;;;;;;13.39;86.12;100037.72;5006369;28;20210;-67
2024/03/15 08:21:16;;;;;;;7.40;4.70;;;;;;;13.50;85.87;100034.97;5006418;28;20228;-67
2024/03/15 08:23:44;;;;;;;5.23;4.73;;;;;;;13.61;85.27;100036.75;5021493;28;20240;-68
2024/03/15 08:26:11;;;;;;;5.97;4.40;;;;;;;13.67;84.63;100042.41;5010400;28;20206;-68
2024/03/15 08:28:38;;;;;;;5.40;4.70;;;;;;;13.75;83.87;100037.25;5025608;28;20293;-68
2024/03/15 08:31:04;;;;;;;5.27;4.67;;;;;;;13.85;83.78;100043.50;5007305;28;20233;-67
2024/03/15 08:33:31;;;;;;;6.70;4.80;;;;;;;13.91;83.29;100039.47;5008250;28;20215;-68
2024/03/15 08:35:58;;;;;;;6.90;4.43;;;;;;;13.95;82.82;100042.72;5000149;28;20222;-68
2024/03/15 08:38:24;;;;;;;5.87;4.63;;;;;;;13.98;82.36;100039.75;5005305;28;20297;-68
2024/03/15 08:40:52;;;;;;;6.33;4.03;;;;;;;14.00;81.16;100040.47;5009610;28;20605;-68
2024/03/15 08:43:18;;;;;;;4.50;3.97;;;;;;;14.04;80.86;100041.91;5002777;28;20211;-67
2024/03/15 08:45:49;;;;;;;5.73;4.80;;;;;;;14.06;81.11;100037.25;5024961;28;20297;-68
2024/03/15 08:48:17;;;;;;;6.80;3.80;;;;;;;14.11;80.41;100041.25;5004632;28;20293;-67
2024/03/15 08:50:46;;;;;;;5.03;4.20;;;;;;;14.15;80.69;100041.84;5023576;28;20712;-67
2024/03/15 08:53:13;;;;;;;5.63;4.13;;;;;;;14.16;80.49;100049.69;5009957;28;20210;-67
2024/03/15 08:55:41;;;;;;;5.03;4.20;;;;;;;14.18;79.68;100057.59;5022044;28;20309;-67
2024/03/15 08:58:08;;;;;;;5.73;4.20;;;;;;;14.18;79.82;100047.75;5007936;28;20211;-66
2024/03/15 09:00:35;;;;;;;6.17;4.30;;;;;;;14.21;79.64;100054.66;5007199;28;20305;-68
2024/03/15 09:03:02;;;;;;;5.83;4.30;;;;;;;14.25;79.56;100058.78;5006138;28;20416;-68
2024/03/15 09:05:28;;;;;;;6.17;4.13;;;;;;;14.24;80.00;100057.06;5002541;28;20206;-67
2024/03/15 09:07:55;;;;;;;8.03;4.60;;;;;;;14.24;79.73;100047.22;5022307;28;20285;-66
2024/03/15 09:10:23;;;;;;;5.63;4.37;;;;;;;14.31;80.00;100049.38;5020465;28;20733;-67
2024/03/15 09:12:49;;;;;;;5.97;4.40;;;;;;;14.31;79.27;100052.88;5022425;28;20344;-67
2024/03/15 09:15:17;;;;;;;5.87;4.93;;;;;;;14.32;79.42;100051.91;5002490;28;20714;-67
2024/03/15 09:17:44;;;;;;;6.83;4.87;;;;;;;14.40;79.91;100061.94;5022178;28;20718;-65
2024/03/15 09:20:14;;;;;;;6.30;4.50;;;;;;;14.43;79.56;100054.50;5006499;28;20309;-66
2024/03/15 09:22:40;;;;;;;5.13;4.63;;;;;;;14.45;79.41;100052.53;5025702;28;20293;-66
2024/03/15 09:25:12;;;;;;;6.93;4.73;;;;;;;14.46;79.27;100067.63;5007020;28;20674;-66
2024/03/15 09:27:39;;;;;;;5.27;4.70;;;;;;;14.48;78.95;100063.00;5012015;28;20206;-67
2024/03/15 09:30:16;;;;;;;9.90;4.60;;;;;;;14.52;78.86;100064.38;5019700;28;20305;-67
2024/03/15 09:32:43;;;;;;;6.43;5.13;;;;;;;14.50;79.06;100058.34;5025446;28;20293;-67
2024/03/15 09:35:09;;;;;;;6.03;4.90;;;;;;;14.54;79.48;100058.91;5007759;28;20225;-66
2024/03/15 09:37:46;;;;;;;6.50;4.73;;;;;;;14.55;79.25;100069.47;5003412;28;20286;-66
2024/03/15 09:40:14;;;;;;;7.50;5.07;;;;;;;14.60;79.52;100063.72;5004883;28;20285;-66
2024/03/15 09:42:41;;;;;;;6.70;4.83;;;;;;;14.64;78.94;100065.16;5025405;28;20289;-67
2024/03/15 09:45:08;;;;;;;6.83;5.23;;;;;;;14.67;79.29;100069.38;5007057;28;20199;-66
2024/03/15 09:47:35;;;;;;;6.00;5.30;;;;;;;14.69;79.76;100072.78;5020245;28;20268;-66
2024/03/15 09:50:03;;;;;;;6.70;4.77;;;;;;;14.69;79.01;100068.25;5005821;28;20661;-66
2024/03/15 09:52:30;;;;;;;6.27;5.47;;;;;;;14.69;78.65;100073.59;5006663;28;20422;-67
2024/03/15 09:54:57;;;;;;;5.93;5.17;;;;;;;14.69;79.03;100078.97;5010588;28;20317;-66
2024/03/15 09:57:24;;;;;;;6.27;5.40;;;;;;;14.64;78.97;100080.38;5012648;28;20310;-67
2024/03/15 09:59:50;;;;;;;6.17;4.87;;;;;;;14.63;79.02;100070.66;5026584;28;20325;-66
2024/03/15 10:02:17;;;;;;;8.30;5.10;;;;;;;14.64;79.49;100073.19;5012166;28;20757;-67
2024/03/15 10:04:46;;;;;;;6.60;5.90;;;;;;;14.63;79.73;100076.00;5029139;28;20212;-66
2024/03/15 10:07:14;;;;;;;7.53;6.13;;;;;;;14.62;80.96;100075.16;5008035;28;20302;-66
2024/03/15 10:09:41;;;;;;;7.20;5.40;;;;;;;14.65;82.53;100082.06;5010198;28;20202;-66
2024/03/15 10:12:09;;;;;;;6.13;5.40;;;;;;;14.67;82.27;100072.06;5007109;28;20208;-67
2024/03/15 10:14:36;;;;;;;9.00;6.20;;;;;;;14.63;81.71;100076.84;5010380;28;20280;-66
2024/03/15 10:17:03;;;;;;;6.23;5.13;;;;;;;14.67;82.00;100082.78;5007663;28;20229;-66
2024/03/15 10:19:31;;;;;;;7.73;6.00;;;;;;;14.68;81.87;100076.44;5016262;28;20220;-67
2024/03/15 10:21:59;;;;;;;6.57;5.07;;;;;;;14.73;81.45;100082.22;5011742;28;20204;-67
2024/03/15 10:24:26;;;;;;;6.13;5.47;;;;;;;14.76;81.57;100084.63;5012768;28;20296;-66
2024/03/15 10:26:52;;;;;;;5.60;5.00;;;;;;;14.78;81.79;100083.50;5028153;28;20290;-66
2024/03/15 10:29:22;;;;;;;6.50;5.60;;;;;;;14.82;81.61;100092.13;5009191;28;20211;-66
2024/03/15 10:31:48;;;;;;;7.20;5.33;;;;;;;14.87;80.92;100088.03;5011573;28;20232;-66
2024/03/15 10:34:15;;;;;;;6.20;5.20;;;;;;;14.87;80.42;100092.53;5008760;28;20302;-66
2024/03/15 10:36:42;;;;;;;6.47;5.80;;;;;;;14.90;80.06;100103.00;5010135;28;20225;-66
2024/03/15 10:39:11;;;;;;;7.03;5.87;;;;;;;14.92;80.20;100095.66;5011920;28;20465;-66
2024/03/15 10:41:38;;;;;;;8.67;5.37;;;;;;;14.92;80.30;100096.53;5014174;28;20223;-67
2024/03/15 10:44:05;;;;;;;6.40;5.30;;;;;;;15.00;80.01;100089.63;5006168;28;20203;-67
2024/03/15 10:46:32;;;;;;;6.53;5.10;;;;;;;14.99;79.85;100095.97;5015391;28;20298;-66
2024/03/15 10:48:59;;;;;;;5.83;5.20;;;;;;;14.96;79.66;100090.88;5012770;28;20294;-67
2024/03/15 10:51:27;;;;;;;8.03;6.13;;;;;;;14.97;80.34;100095.25;5010758;28;20240;-66
2024/03/15 10:53:54;;;;;;;6.50;5.40;;;;;;;14.95;80.51;100098.09;5010616;28;20219;-66
2024/03/15 10:56:21;;;;;;;7.73;6.23;;;;;;;14.99;80.26;100104.03;5010484;28;20227;-66
2024/03/15 10:58:48;;;;;;;8.47;5.10;;;;;;;14.99;79.94;100096.81;5028979;28;20217;-67
2024/03/15 11:01:14;;;;;;;5.97;5.37;;;;;;;14.97;80.11;100090.75;5011363;28;20248;-67
2024/03/15 11:03:42;;;;;;;5.47;4.97;;;;;;;14.97;80.24;100085.38;5008265;28;20232;-66
2024/03/15 11:06:09;;;;;;;6.20;5.27;;;;;;;14.98;79.98;100097.81;5028420;28;20242;-67
2024/03/15 11:08:37;;;;;;;5.97;5.43;;;;;;;15.01;79.81;100088.66;5013589;28;20249;-66
2024/03/15 11:11:05;;;;;;;6.87;5.50;;;;;;;15.05;79.59;100095.44;5011146;28;20257;-66
2024/03/15 11:13:32;;;;;;;8.00;6.00;;;;;;;15.13;80.29;100093.72;5016237;28;20238;-67
2024/03/15 11:15:59;;;;;;;6.80;5.47;;;;;;;15.18;79.53;100091.50;5006286;28;20323;-67
2024/03/15 11:18:34;;;;;;;7.30;5.73;;;;;;;15.24;79.81;100092.75;5005420;28;20292;-66
2024/03/15 11:21:00;;;;;;;8.97;5.70;;;;;;;15.27;78.41;100092.47;5012298;28;20236;-67
2024/03/15 11:23:27;;;;;;;7.13;4.70;;;;;;;15.27;78.05;100082.59;5012686;28;20244;-67
2024/03/15 11:25:54;;;;;;;6.57;5.33;;;;;;;15.32;79.83;100092.06;5029046;28;20289;-67
2024/03/15 11:28:21;;;;;;;5.07;4.50;;;;;;;15.36;81.43;100093.47;5010415;28;20234;-66
2024/03/15 11:30:48;;;;;;;6.80;4.83;;;;;;;15.34;81.34;100093.59;5010051;28;20302;-67